To NAV CANADA Home Page Login to a new session Search on AWWS site Feedback and Comments Disclaimer Vers la page française équivalente Tips FAQ What's new on the site To the Forecasts and Observations / NOTAM section To "File a Flight Plan" website Publications and other links Update of the User's profile FIC Telephone Numbers My Weather Data Folder Route Weather Data Regional Weather Data Local Weather Data To the Forecasts and Observations / NOTAM section
Request Generated 07/29/2016 at 05:56:44 UTC . Weather information available at that time is displayed.

METAR/TAF

KELOWNA/BC    (show WxCam)

METAR CYLW 290500Z AUTO 00000KT 9SM CLR 23/12 A2998 RMK SLP145
DENSITY ALT 2500FT=
METAR CYLW 290400Z AUTO 03004KT 9SM FEW160 25/13 A2997 RMK SLP141
DENSITY ALT 2800FT=
METAR CYLW 290300Z AUTO 02005KT 9SM CLR 29/11 A2995 RMK SLP135
DENSITY ALT 3300FT=

TAF CYLW 290038Z 2901/2913 33008KT P6SM FEW070
RMK FCST BASED ON AUTO OBS. NXT FCST BY 290700Z=
Your time UTC time
Weather data provided by Environment Canada and NAV CANADA